sensor_id;sensor_type;location;lat;lon;timestamp;pressure;altitude;pressure_sealevel;temperature;humidity
39773;BME280;25451;51.960;6.250;2023-02-28T00:00:06;102984.53;;;2.09;61.04
39773;BME280;25451;51.960;6.250;2023-02-28T00:02:43;102991.69;;;2.10;61.13
39773;BME280;25451;51.960;6.250;2023-02-28T00:05:10;102964.72;;;1.97;60.96
39773;BME280;25451;51.960;6.250;2023-02-28T00:07:36;102976.63;;;2.06;61.40
39773;BME280;25451;51.960;6.250;2023-02-28T00:10:03;102978.38;;;2.07;61.32
39773;BME280;25451;51.960;6.250;2023-02-28T00:12:29;102965.00;;;2.04;61.23
39773;BME280;25451;51.960;6.250;2023-02-28T00:14:54;102972.06;;;2.06;61.10
39773;BME280;25451;51.960;6.250;2023-02-28T00:17:20;102976.81;;;2.14;61.13
39773;BME280;25451;51.960;6.250;2023-02-28T00:19:48;102975.34;;;2.10;61.11
39773;BME280;25451;51.960;6.250;2023-02-28T00:22:14;102963.72;;;2.08;61.27
39773;BME280;25451;51.960;6.250;2023-02-28T00:24:40;102957.44;;;2.07;61.10
39773;BME280;25451;51.960;6.250;2023-02-28T00:27:05;102970.53;;;2.13;61.35
39773;BME280;25451;51.960;6.250;2023-02-28T00:29:30;102959.63;;;2.13;61.45
39773;BME280;25451;51.960;6.250;2023-02-28T00:31:56;102959.31;;;2.16;61.07
39773;BME280;25451;51.960;6.250;2023-02-28T00:34:21;102967.50;;;2.16;61.45
39773;BME280;25451;51.960;6.250;2023-02-28T00:36:46;102974.53;;;2.19;61.41
39773;BME280;25451;51.960;6.250;2023-02-28T00:39:14;102967.66;;;2.15;61.38
39773;BME280;25451;51.960;6.250;2023-02-28T00:41:39;102970.94;;;2.18;61.16
39773;BME280;25451;51.960;6.250;2023-02-28T00:44:04;102972.69;;;2.19;61.78
39773;BME280;25451;51.960;6.250;2023-02-28T00:46:30;102969.69;;;2.22;61.65
39773;BME280;25451;51.960;6.250;2023-02-28T00:48:55;102972.41;;;2.22;61.69
39773;BME280;25451;51.960;6.250;2023-02-28T00:51:21;102966.84;;;2.24;61.45
39773;BME280;25451;51.960;6.250;2023-02-28T00:53:46;102961.38;;;2.24;61.69
39773;BME280;25451;51.960;6.250;2023-02-28T00:56:11;102972.00;;;2.27;61.65
39773;BME280;25451;51.960;6.250;2023-02-28T00:58:36;102963.38;;;2.22;61.70
39773;BME280;25451;51.960;6.250;2023-02-28T01:01:02;102963.81;;;2.27;61.54
39773;BME280;25451;51.960;6.250;2023-02-28T01:03:28;102961.25;;;2.25;61.92
39773;BME280;25451;51.960;6.250;2023-02-28T01:05:53;102955.94;;;2.24;61.75
39773;BME280;25451;51.960;6.250;2023-02-28T01:08:19;102968.72;;;2.33;61.98
39773;BME280;25451;51.960;6.250;2023-02-28T01:10:44;102964.28;;;2.32;61.68
39773;BME280;25451;51.960;6.250;2023-02-28T01:13:10;102966.72;;;2.35;61.85
39773;BME280;25451;51.960;6.250;2023-02-28T01:15:36;102957.38;;;2.28;61.99
39773;BME280;25451;51.960;6.250;2023-02-28T01:18:02;102974.88;;;2.35;62.10
39773;BME280;25451;51.960;6.250;2023-02-28T01:20:28;102982.78;;;2.38;61.90
39773;BME280;25451;51.960;6.250;2023-02-28T01:22:53;102987.63;;;2.34;62.16
39773;BME280;25451;51.960;6.250;2023-02-28T01:25:18;102981.78;;;2.39;61.72
39773;BME280;25451;51.960;6.250;2023-02-28T01:27:44;102981.06;;;2.37;62.20
39773;BME280;25451;51.960;6.250;2023-02-28T01:30:10;102980.91;;;2.38;61.92
39773;BME280;25451;51.960;6.250;2023-02-28T01:32:36;102984.25;;;2.42;62.24
39773;BME280;25451;51.960;6.250;2023-02-28T01:35:01;102965.97;;;2.33;62.12
39773;BME280;25451;51.960;6.250;2023-02-28T01:37:27;102979.50;;;2.44;62.00
39773;BME280;25451;51.960;6.250;2023-02-28T01:39:53;102978.50;;;2.45;62.10
39773;BME280;25451;51.960;6.250;2023-02-28T01:42:18;102969.59;;;2.43;62.15
39773;BME280;25451;51.960;6.250;2023-02-28T01:47:48;102957.97;;;2.41;62.13
39773;BME280;25451;51.960;6.250;2023-02-28T01:50:21;102968.88;;;2.41;62.41
39773;BME280;25451;51.960;6.250;2023-02-28T01:52:48;102976.06;;;2.51;62.25
39773;BME280;25451;51.960;6.250;2023-02-28T01:55:16;102952.53;;;2.41;62.28
39773;BME280;25451;51.960;6.250;2023-02-28T01:57:48;102975.94;;;2.53;62.25
39773;BME280;25451;51.960;6.250;2023-02-28T02:00:17;102951.38;;;2.43;62.60
39773;BME280;25451;51.960;6.250;2023-02-28T02:02:46;102969.50;;;2.54;62.36
39773;BME280;25451;51.960;6.250;2023-02-28T02:05:21;102961.72;;;2.49;62.53
39773;BME280;25451;51.960;6.250;2023-02-28T02:07:49;102966.03;;;2.52;62.57
39773;BME280;25451;51.960;6.250;2023-02-28T02:16:18;102968.06;;;2.60;62.40
39773;BME280;25451;51.960;6.250;2023-02-28T02:26:58;102963.19;;;2.63;62.64
39773;BME280;25451;51.960;6.250;2023-02-28T02:40:14;102972.22;;;2.64;62.41
39773;BME280;25451;51.960;6.250;2023-02-28T02:43:06;102961.47;;;2.62;62.23
39773;BME280;25451;51.960;6.250;2023-02-28T02:45:55;102947.13;;;2.60;62.25
39773;BME280;25451;51.960;6.250;2023-02-28T02:48:26;102960.19;;;2.66;62.29
39773;BME280;25451;51.960;6.250;2023-02-28T02:50:56;102958.59;;;2.64;62.56
39773;BME280;25451;51.960;6.250;2023-02-28T02:53:35;102950.28;;;2.65;62.30
39773;BME280;25451;51.960;6.250;2023-02-28T02:56:03;102960.44;;;2.63;62.62
39773;BME280;25451;51.960;6.250;2023-02-28T02:58:35;102944.09;;;2.63;62.50
39773;BME280;25451;51.960;6.250;2023-02-28T03:01:08;102957.00;;;2.61;62.54
39773;BME280;25451;51.960;6.250;2023-02-28T03:03:35;102953.28;;;2.62;62.19
39773;BME280;25451;51.960;6.250;2023-02-28T03:06:02;102961.06;;;2.67;62.24
39773;BME280;25451;51.960;6.250;2023-02-28T03:08:30;102953.72;;;2.67;62.23
39773;BME280;25451;51.960;6.250;2023-02-28T03:11:04;102958.59;;;2.73;62.18
39773;BME280;25451;51.960;6.250;2023-02-28T03:13:45;102956.91;;;2.72;62.42
39773;BME280;25451;51.960;6.250;2023-02-28T03:27:23;102960.34;;;2.74;62.57
39773;BME280;25451;51.960;6.250;2023-02-28T03:30:33;102953.88;;;2.75;62.47
39773;BME280;25451;51.960;6.250;2023-02-28T03:33:21;102952.59;;;2.70;62.30
39773;BME280;25451;51.960;6.250;2023-02-28T03:35:53;102950.72;;;2.70;62.16
39773;BME280;25451;51.960;6.250;2023-02-28T03:38:33;102954.75;;;2.76;62.27
39773;BME280;25451;51.960;6.250;2023-02-28T03:41:23;102945.41;;;2.69;62.51
39773;BME280;25451;51.960;6.250;2023-02-28T03:43:55;102954.75;;;2.76;62.47
39773;BME280;25451;51.960;6.250;2023-02-28T03:46:25;102933.91;;;2.65;62.42
39773;BME280;25451;51.960;6.250;2023-02-28T03:49:17;102946.41;;;2.77;62.21
39773;BME280;25451;51.960;6.250;2023-02-28T03:51:44;102937.09;;;2.70;62.20
39773;BME280;25451;51.960;6.250;2023-02-28T03:54:21;102938.53;;;2.74;62.38
39773;BME280;25451;51.960;6.250;2023-02-28T03:56:52;102926.59;;;2.66;62.07
39773;BME280;25451;51.960;6.250;2023-02-28T03:59:25;102927.88;;;2.71;62.50
39773;BME280;25451;51.960;6.250;2023-02-28T04:01:53;102936.53;;;2.76;62.50
39773;BME280;25451;51.960;6.250;2023-02-28T04:04:20;102935.94;;;2.73;62.48
39773;BME280;25451;51.960;6.250;2023-02-28T04:06:50;102937.25;;;2.78;62.70
39773;BME280;25451;51.960;6.250;2023-02-28T04:09:16;102940.84;;;2.79;62.30
39773;BME280;25451;51.960;6.250;2023-02-28T04:11:43;102936.38;;;2.78;62.58
39773;BME280;25451;51.960;6.250;2023-02-28T04:14:10;102943.41;;;2.80;62.40
39773;BME280;25451;51.960;6.250;2023-02-28T04:16:38;102934.78;;;2.75;62.36
39773;BME280;25451;51.960;6.250;2023-02-28T04:19:04;102936.22;;;2.79;62.38
39773;BME280;25451;51.960;6.250;2023-02-28T04:21:33;102948.88;;;2.80;62.78
39773;BME280;25451;51.960;6.250;2023-02-28T04:23:58;102937.25;;;2.78;62.28
39773;BME280;25451;51.960;6.250;2023-02-28T04:26:33;102955.03;;;2.82;62.46
39773;BME280;25451;51.960;6.250;2023-02-28T04:28:59;102951.59;;;2.80;62.51
39773;BME280;25451;51.960;6.250;2023-02-28T04:31:25;102946.41;;;2.77;62.45
39773;BME280;25451;51.960;6.250;2023-02-28T04:33:50;102945.97;;;2.82;62.42
39773;BME280;25451;51.960;6.250;2023-02-28T04:36:16;102941.25;;;2.74;62.55
39773;BME280;25451;51.960;6.250;2023-02-28T04:38:43;102941.09;;;2.76;62.65
39773;BME280;25451;51.960;6.250;2023-02-28T04:41:09;102950.00;;;2.78;62.75
39773;BME280;25451;51.960;6.250;2023-02-28T04:43:35;102940.94;;;2.77;62.70
39773;BME280;25451;51.960;6.250;2023-02-28T04:46:02;102939.50;;;2.73;62.68
39773;BME280;25451;51.960;6.250;2023-02-28T04:48:30;102954.16;;;2.82;62.82
39773;BME280;25451;51.960;6.250;2023-02-28T04:51:03;102949.13;;;2.77;62.60
39773;BME280;25451;51.960;6.250;2023-02-28T04:53:29;102957.19;;;2.79;62.58
39773;BME280;25451;51.960;6.250;2023-02-28T04:55:55;102960.50;;;2.82;62.91
39773;BME280;25451;51.960;6.250;2023-02-28T04:58:21;102954.88;;;2.74;62.74
39773;BME280;25451;51.960;6.250;2023-02-28T05:00:50;102929.63;;;2.63;62.87
39773;BME280;25451;51.960;6.250;2023-02-28T05:03:16;102950.56;;;2.72;62.65
39773;BME280;25451;51.960;6.250;2023-02-28T05:05:41;102963.47;;;2.79;62.91
39773;BME280;25451;51.960;6.250;2023-02-28T05:08:06;102963.78;;;2.76;62.29
39773;BME280;25451;51.960;6.250;2023-02-28T05:10:32;102967.94;;;2.80;63.12
39773;BME280;25451;51.960;6.250;2023-02-28T05:12:58;102950.56;;;2.72;62.71
39773;BME280;25451;51.960;6.250;2023-02-28T05:15:23;102957.47;;;2.76;62.91
39773;BME280;25451;51.960;6.250;2023-02-28T05:17:49;102967.50;;;2.75;62.49
39773;BME280;25451;51.960;6.250;2023-02-28T05:20:15;102963.47;;;2.79;63.10
39773;BME280;25451;51.960;6.250;2023-02-28T05:22:40;102968.22;;;2.77;62.67
39773;BME280;25451;51.960;6.250;2023-02-28T05:25:06;102964.06;;;2.73;62.82
39773;BME280;25451;51.960;6.250;2023-02-28T05:27:32;102962.03;;;2.75;63.01
39773;BME280;25451;51.960;6.250;2023-02-28T05:29:58;102968.81;;;2.81;62.97
39773;BME280;25451;51.960;6.250;2023-02-28T05:32:24;102972.69;;;2.78;62.86
39773;BME280;25451;51.960;6.250;2023-02-28T05:34:49;102963.94;;;2.75;62.72
39773;BME280;25451;51.960;6.250;2023-02-28T05:37:15;102973.09;;;2.74;62.65
39773;BME280;25451;51.960;6.250;2023-02-28T05:39:41;102975.69;;;2.75;62.98
39773;BME280;25451;51.960;6.250;2023-02-28T05:42:07;102973.81;;;2.76;62.95
39773;BME280;25451;51.960;6.250;2023-02-28T05:44:32;102980.72;;;2.80;63.04
39773;BME280;25451;51.960;6.250;2023-02-28T05:46:58;102982.56;;;2.79;62.81
39773;BME280;25451;51.960;6.250;2023-02-28T05:49:23;102972.13;;;2.75;63.12
39773;BME280;25451;51.960;6.250;2023-02-28T05:51:48;102975.69;;;2.75;62.80
39773;BME280;25451;51.960;6.250;2023-02-28T05:54:14;102988.19;;;2.78;62.82
39773;BME280;25451;51.960;6.250;2023-02-28T05:56:39;102980.41;;;2.73;63.13
39773;BME280;25451;51.960;6.250;2023-02-28T05:59:06;102972.69;;;2.69;62.86
39773;BME280;25451;51.960;6.250;2023-02-28T06:03:58;102969.50;;;2.64;63.04
39773;BME280;25451;51.960;6.250;2023-02-28T06:06:23;102974.97;;;2.64;63.01
39773;BME280;25451;51.960;6.250;2023-02-28T06:08:49;102982.56;;;2.70;63.10
39773;BME280;25451;51.960;6.250;2023-02-28T06:11:14;102996.94;;;2.72;63.00
39773;BME280;25451;51.960;6.250;2023-02-28T06:13:40;103000.22;;;2.75;63.24
39773;BME280;25451;51.960;6.250;2023-02-28T06:16:06;103005.09;;;2.72;62.79
39773;BME280;25451;51.960;6.250;2023-02-28T06:18:32;103005.09;;;2.72;63.07
39773;BME280;25451;51.960;6.250;2023-02-28T06:20:57;102998.78;;;2.71;63.34
39773;BME280;25451;51.960;6.250;2023-02-28T06:23:23;103017.59;;;2.74;62.81
39773;BME280;25451;51.960;6.250;2023-02-28T06:25:49;103008.97;;;2.69;63.22
39773;BME280;25451;51.960;6.250;2023-02-28T06:28:15;103004.78;;;2.65;62.98
39773;BME280;25451;51.960;6.250;2023-02-28T06:30:40;103011.28;;;2.64;62.89
39773;BME280;25451;51.960;6.250;2023-02-28T06:33:05;103013.69;;;2.67;63.24
39773;BME280;25451;51.960;6.250;2023-02-28T06:35:31;102999.66;;;2.62;62.99
39773;BME280;25451;51.960;6.250;2023-02-28T06:37:57;103007.66;;;2.64;63.37
39773;BME280;25451;51.960;6.250;2023-02-28T06:40:22;103018.03;;;2.70;63.11
39773;BME280;25451;51.960;6.250;2023-02-28T06:42:48;103017.16;;;2.69;62.91
39773;BME280;25451;51.960;6.250;2023-02-28T06:45:14;103012.25;;;2.63;63.27
39773;BME280;25451;51.960;6.250;2023-02-28T06:47:40;103019.03;;;2.69;63.23
39773;BME280;25451;51.960;6.250;2023-02-28T06:50:10;103023.31;;;2.71;63.03
39773;BME280;25451;51.960;6.250;2023-02-28T06:52:36;103019.31;;;2.66;62.84
39773;BME280;25451;51.960;6.250;2023-02-28T06:55:06;103024.34;;;2.70;63.07
39773;BME280;25451;51.960;6.250;2023-02-28T06:57:34;103021.88;;;2.67;62.91
39773;BME280;25451;51.960;6.250;2023-02-28T07:00:06;103035.97;;;2.72;63.18
39773;BME280;25451;51.960;6.250;2023-02-28T07:02:33;103031.50;;;2.71;62.87
39773;BME280;25451;51.960;6.250;2023-02-28T07:04:58;103030.50;;;2.72;63.01
39773;BME280;25451;51.960;6.250;2023-02-28T07:07:23;103032.22;;;2.73;62.68
39773;BME280;25451;51.960;6.250;2023-02-28T07:09:49;103033.09;;;2.74;62.85
39773;BME280;25451;51.960;6.250;2023-02-28T07:12:14;103037.69;;;2.73;62.61
39773;BME280;25451;51.960;6.250;2023-02-28T07:14:39;103027.38;;;2.77;62.55
39773;BME280;25451;51.960;6.250;2023-02-28T07:17:07;103031.66;;;2.79;62.91
39773;BME280;25451;51.960;6.250;2023-02-28T07:19:32;103028.53;;;2.84;62.16
39773;BME280;25451;51.960;6.250;2023-02-28T07:21:58;103025.78;;;2.84;62.12
39773;BME280;25451;51.960;6.250;2023-02-28T07:24:23;103036.28;;;2.88;62.64
39773;BME280;25451;51.960;6.250;2023-02-28T07:26:51;103036.44;;;2.87;62.43
39773;BME280;25451;51.960;6.250;2023-02-28T07:29:16;103041.59;;;2.90;62.15
39773;BME280;25451;51.960;6.250;2023-02-28T07:31:41;103037.72;;;2.92;62.36
39773;BME280;25451;51.960;6.250;2023-02-28T07:34:06;103040.16;;;2.95;62.23
39773;BME280;25451;51.960;6.250;2023-02-28T07:36:32;103041.59;;;2.99;61.99
39773;BME280;25451;51.960;6.250;2023-02-28T07:38:58;103046.78;;;3.02;62.11
39773;BME280;25451;51.960;6.250;2023-02-28T07:41:24;103049.09;;;3.07;62.10
39773;BME280;25451;51.960;6.250;2023-02-28T07:43:53;103053.41;;;3.09;62.09
39773;BME280;25451;51.960;6.250;2023-02-28T07:46:20;103040.34;;;3.03;61.74
39773;BME280;25451;51.960;6.250;2023-02-28T07:48:46;103044.50;;;3.07;61.73
39773;BME280;25451;51.960;6.250;2023-02-28T07:51:11;103047.66;;;3.12;61.88
39773;BME280;25451;51.960;6.250;2023-02-28T07:53:37;103052.28;;;3.21;61.75
39773;BME280;25451;51.960;6.250;2023-02-28T07:56:03;103046.81;;;3.21;61.42
39773;BME280;25451;51.960;6.250;2023-02-28T07:58:29;103041.06;;;3.24;61.57
39773;BME280;25451;51.960;6.250;2023-02-28T08:00:54;103046.81;;;3.31;61.28
39773;BME280;25451;51.960;6.250;2023-02-28T08:03:21;103059.16;;;3.45;61.04
39773;BME280;25451;51.960;6.250;2023-02-28T08:05:47;103053.44;;;3.48;60.91
39773;BME280;25451;51.960;6.250;2023-02-28T08:08:13;103065.22;;;3.58;61.12
39773;BME280;25451;51.960;6.250;2023-02-28T08:10:38;103046.09;;;3.58;60.82
39773;BME280;25451;51.960;6.250;2023-02-28T08:13:04;103022.38;;;3.49;60.88
39773;BME280;25451;51.960;6.250;2023-02-28T08:15:29;103066.47;;;3.82;60.71
39773;BME280;25451;51.960;6.250;2023-02-28T08:17:54;103054.84;;;3.80;60.52
39773;BME280;25451;51.960;6.250;2023-02-28T08:20:22;103057.84;;;3.87;60.77
39773;BME280;25451;51.960;6.250;2023-02-28T08:22:47;103066.28;;;3.93;60.51
39773;BME280;25451;51.960;6.250;2023-02-28T08:25:12;103035.84;;;3.88;60.51
39773;BME280;25451;51.960;6.250;2023-02-28T08:27:38;103063.69;;;4.11;60.22
39773;BME280;25451;51.960;6.250;2023-02-28T08:30:04;103012.84;;;3.91;60.10
39773;BME280;25451;51.960;6.250;2023-02-28T08:32:33;103039.34;;;4.17;59.97
39773;BME280;25451;51.960;6.250;2023-02-28T08:34:58;103070.78;;;4.41;59.89
39773;BME280;25451;51.960;6.250;2023-02-28T08:37:24;103058.06;;;4.49;59.93
39773;BME280;25451;51.960;6.250;2023-02-28T08:39:50;103062.22;;;4.53;59.86
39773;BME280;25451;51.960;6.250;2023-02-28T08:42:15;103063.22;;;4.52;59.73
39773;BME280;25451;51.960;6.250;2023-02-28T08:44:40;103061.91;;;4.56;59.55
39773;BME280;25451;51.960;6.250;2023-02-28T08:47:06;103057.16;;;4.58;59.27
39773;BME280;25451;51.960;6.250;2023-02-28T08:49:32;103047.78;;;4.61;59.51
39773;BME280;25451;51.960;6.250;2023-02-28T08:51:57;103062.69;;;4.76;59.61
39773;BME280;25451;51.960;6.250;2023-02-28T08:54:23;103047.16;;;4.76;59.40
39773;BME280;25451;51.960;6.250;2023-02-28T08:56:49;103027.59;;;4.71;59.11
39773;BME280;25451;51.960;6.250;2023-02-28T08:59:14;103063.16;;;4.98;58.86
39773;BME280;25451;51.960;6.250;2023-02-28T09:01:40;103058.91;;;5.04;59.30
39773;BME280;25451;51.960;6.250;2023-02-28T09:04:07;103059.88;;;5.13;59.03
39773;BME280;25451;51.960;6.250;2023-02-28T09:06:34;103071.44;;;5.24;58.75
39773;BME280;25451;51.960;6.250;2023-02-28T09:08:59;103068.56;;;5.26;58.63
39773;BME280;25451;51.960;6.250;2023-02-28T09:11:27;103071.06;;;5.37;58.40
39773;BME280;25451;51.960;6.250;2023-02-28T09:13:52;103055.72;;;5.44;59.07
39773;BME280;25451;51.960;6.250;2023-02-28T09:16:18;103071.38;;;5.69;58.20
39773;BME280;25451;51.960;6.250;2023-02-28T09:18:43;103071.97;;;5.80;58.23
39773;BME280;25451;51.960;6.250;2023-02-28T09:21:14;103080.00;;;5.92;58.00
39773;BME280;25451;51.960;6.250;2023-02-28T09:23:44;103063.59;;;6.00;58.05
39773;BME280;25451;51.960;6.250;2023-02-28T09:26:15;103071.78;;;6.17;57.93
39773;BME280;25451;51.960;6.250;2023-02-28T09:28:41;103069.47;;;6.30;57.71
39773;BME280;25451;51.960;6.250;2023-02-28T09:31:06;103063.69;;;6.41;57.06
39773;BME280;25451;51.960;6.250;2023-02-28T09:33:35;103058.63;;;6.54;57.39
39773;BME280;25451;51.960;6.250;2023-02-28T09:36:02;103053.56;;;6.67;56.82
39773;BME280;25451;51.960;6.250;2023-02-28T09:38:29;103061.47;;;6.79;56.93
39773;BME280;25451;51.960;6.250;2023-02-28T09:41:02;103067.50;;;6.82;56.74
39773;BME280;25451;51.960;6.250;2023-02-28T09:43:33;103057.25;;;6.92;56.62
39773;BME280;25451;51.960;6.250;2023-02-28T09:46:12;103054.72;;;7.07;56.35
39773;BME280;25451;51.960;6.250;2023-02-28T09:48:43;103057.19;;;7.34;56.42
39773;BME280;25451;51.960;6.250;2023-02-28T09:51:22;103050.50;;;7.52;56.18
39773;BME280;25451;51.960;6.250;2023-02-28T09:53:53;103024.91;;;7.60;55.64
39773;BME280;25451;51.960;6.250;2023-02-28T09:56:22;103054.97;;;7.94;55.37
39773;BME280;25451;51.960;6.250;2023-02-28T09:59:01;103038.63;;;8.00;55.38
39773;BME280;25451;51.960;6.250;2023-02-28T10:01:39;103041.72;;;8.13;55.19
39773;BME280;25451;51.960;6.250;2023-02-28T10:06:51;103054.72;;;8.44;54.48
39773;BME280;25451;51.960;6.250;2023-02-28T10:09:21;103063.31;;;8.57;54.57
39773;BME280;25451;51.960;6.250;2023-02-28T10:11:50;103050.53;;;8.64;54.42
39773;BME280;25451;51.960;6.250;2023-02-28T10:14:23;103049.69;;;8.55;54.28
39773;BME280;25451;51.960;6.250;2023-02-28T10:16:55;103048.88;;;8.55;54.13
39773;BME280;25451;51.960;6.250;2023-02-28T10:22:23;103049.66;;;8.71;54.47
39773;BME280;25451;51.960;6.250;2023-02-28T10:24:54;103045.63;;;8.82;54.46
39773;BME280;25451;51.960;6.250;2023-02-28T10:27:24;103049.00;;;9.00;53.99
39773;BME280;25451;51.960;6.250;2023-02-28T10:29:54;103042.06;;;9.12;53.83
39773;BME280;25451;51.960;6.250;2023-02-28T10:32:24;103039.47;;;9.10;53.95
39773;BME280;25451;51.960;6.250;2023-02-28T10:37:34;103037.63;;;9.03;53.87
39773;BME280;25451;51.960;6.250;2023-02-28T10:40:05;103041.63;;;8.92;53.88
39773;BME280;25451;51.960;6.250;2023-02-28T10:42:31;103041.22;;;8.73;53.83
39773;BME280;25451;51.960;6.250;2023-02-28T10:45:14;103045.00;;;8.72;53.43
39773;BME280;25451;51.960;6.250;2023-02-28T10:48:02;103046.16;;;8.85;53.25
39773;BME280;25451;51.960;6.250;2023-02-28T10:50:50;103043.31;;;9.01;53.35
39773;BME280;25451;51.960;6.250;2023-02-28T10:58:24;103042.84;;;8.90;52.95
39773;BME280;25451;51.960;6.250;2023-02-28T11:00:51;103036.34;;;8.83;52.76
39773;BME280;25451;51.960;6.250;2023-02-28T11:03:34;103032.19;;;8.87;52.56
39773;BME280;25451;51.960;6.250;2023-02-28T11:06:07;103019.41;;;8.94;52.34
39773;BME280;25451;51.960;6.250;2023-02-28T11:08:33;103022.16;;;8.94;52.28
39773;BME280;25451;51.960;6.250;2023-02-28T11:11:04;103019.69;;;8.76;52.08
39773;BME280;25451;51.960;6.250;2023-02-28T11:13:33;103022.69;;;8.59;51.90
39773;BME280;25451;51.960;6.250;2023-02-28T11:16:04;103026.84;;;8.55;51.96
39773;BME280;25451;51.960;6.250;2023-02-28T11:18:39;103020.97;;;8.58;52.19
39773;BME280;25451;51.960;6.250;2023-02-28T11:21:06;103013.91;;;8.55;51.72
39773;BME280;25451;51.960;6.250;2023-02-28T11:23:34;103021.66;;;8.60;52.10
39773;BME280;25451;51.960;6.250;2023-02-28T11:26:02;103016.53;;;8.57;51.76
39773;BME280;25451;51.960;6.250;2023-02-28T11:28:38;103019.97;;;8.51;51.59
39773;BME280;25451;51.960;6.250;2023-02-28T11:33:55;103018.69;;;8.30;51.94
39773;BME280;25451;51.960;6.250;2023-02-28T11:36:29;103015.75;;;8.32;51.43
39773;BME280;25451;51.960;6.250;2023-02-28T11:39:01;103015.56;;;8.25;51.77
39773;BME280;25451;51.960;6.250;2023-02-28T11:41:40;103025.19;;;8.21;51.25
39773;BME280;25451;51.960;6.250;2023-02-28T11:55:11;103007.00;;;8.04;50.32
39773;BME280;25451;51.960;6.250;2023-02-28T12:00:29;103014.94;;;7.91;50.27
39773;BME280;25451;51.960;6.250;2023-02-28T12:05:45;103001.00;;;7.93;49.57
39773;BME280;25451;51.960;6.250;2023-02-28T12:08:42;102997.75;;;7.97;49.23
39773;BME280;25451;51.960;6.250;2023-02-28T12:11:24;102993.09;;;7.98;48.99
39773;BME280;25451;51.960;6.250;2023-02-28T12:16:47;102974.66;;;8.06;49.33
39773;BME280;25451;51.960;6.250;2023-02-28T12:19:20;102972.78;;;8.07;49.14
39773;BME280;25451;51.960;6.250;2023-02-28T12:27:22;102973.69;;;7.91;49.10
39773;BME280;25451;51.960;6.250;2023-02-28T12:30:21;102969.06;;;7.92;49.26
39773;BME280;25451;51.960;6.250;2023-02-28T12:32:46;102948.28;;;7.81;49.01
39773;BME280;25451;51.960;6.250;2023-02-28T12:35:17;102971.81;;;7.84;49.11
39773;BME280;25451;51.960;6.250;2023-02-28T12:37:50;102967.84;;;7.78;48.55
39773;BME280;25451;51.960;6.250;2023-02-28T12:40:21;102967.69;;;7.64;49.09
39773;BME280;25451;51.960;6.250;2023-02-28T12:42:58;102951.75;;;7.51;49.12
39773;BME280;25451;51.960;6.250;2023-02-28T12:45:28;102946.59;;;7.40;48.62
39773;BME280;25451;51.960;6.250;2023-02-28T12:48:04;102931.81;;;7.25;49.10
39773;BME280;25451;51.960;6.250;2023-02-28T12:50:32;102929.78;;;7.27;48.63
39773;BME280;25451;51.960;6.250;2023-02-28T12:53:03;102946.25;;;7.27;48.80
39773;BME280;25451;51.960;6.250;2023-02-28T12:59:14;102926.34;;;7.09;48.34
39773;BME280;25451;51.960;6.250;2023-02-28T13:01:24;102928.94;;;7.10;48.89
39773;BME280;25451;51.960;6.250;2023-02-28T13:09:27;102920.84;;;7.01;48.44
39773;BME280;25451;51.960;6.250;2023-02-28T13:11:55;102916.72;;;6.97;48.37
39773;BME280;25451;51.960;6.250;2023-02-28T13:17:39;102919.47;;;6.97;48.06
39773;BME280;25451;51.960;6.250;2023-02-28T13:22:18;102917.94;;;6.94;47.52
39773;BME280;25451;51.960;6.250;2023-02-28T13:24:50;102907.47;;;6.90;48.04
39773;BME280;25451;51.960;6.250;2023-02-28T13:27:31;102918.44;;;6.90;47.48
39773;BME280;25451;51.960;6.250;2023-02-28T13:29:57;102913.94;;;6.81;47.67
39773;BME280;25451;51.960;6.250;2023-02-28T13:39:53;102896.28;;;6.75;47.86
39773;BME280;25451;51.960;6.250;2023-02-28T13:42:23;102907.78;;;6.79;47.66
39773;BME280;25451;51.960;6.250;2023-02-28T13:47:32;102899.22;;;6.74;47.73
39773;BME280;25451;51.960;6.250;2023-02-28T14:06:52;102894.53;;;6.58;47.33
39773;BME280;25451;51.960;6.250;2023-02-28T14:09:25;102894.53;;;6.58;47.19
39773;BME280;25451;51.960;6.250;2023-02-28T14:11:52;102883.53;;;6.58;47.04
39773;BME280;25451;51.960;6.250;2023-02-28T14:17:15;102878.41;;;6.55;47.08
39773;BME280;25451;51.960;6.250;2023-02-28T14:19:45;102885.78;;;6.62;46.93
39773;BME280;25451;51.960;6.250;2023-02-28T14:23:11;102878.94;;;6.58;46.66
39773;BME280;25451;51.960;6.250;2023-02-28T14:25:33;102891.09;;;6.64;46.80
39773;BME280;25451;51.960;6.250;2023-02-28T14:34:13;102885.59;;;6.56;47.20
39773;BME280;25451;51.960;6.250;2023-02-28T14:36:43;102866.06;;;6.51;47.00
39773;BME280;25451;51.960;6.250;2023-02-28T14:39:20;102884.09;;;6.53;46.85
39773;BME280;25451;51.960;6.250;2023-02-28T14:41:47;102877.56;;;6.54;46.69
39773;BME280;25451;51.960;6.250;2023-02-28T14:46:44;102872.75;;;6.56;46.71
39773;BME280;25451;51.960;6.250;2023-02-28T14:49:21;102876.69;;;6.54;46.55
39773;BME280;25451;51.960;6.250;2023-02-28T14:51:49;102866.56;;;6.46;46.61
39773;BME280;25451;51.960;6.250;2023-02-28T14:54:16;102879.59;;;6.44;46.68
39773;BME280;25451;51.960;6.250;2023-02-28T14:56:48;102870.84;;;6.41;47.16
39773;BME280;25451;51.960;6.250;2023-02-28T14:59:34;102871.53;;;6.43;47.09
39773;BME280;25451;51.960;6.250;2023-02-28T15:02:17;102874.28;;;6.43;46.40
39773;BME280;25451;51.960;6.250;2023-02-28T15:04:43;102862.44;;;6.42;46.69
39773;BME280;25451;51.960;6.250;2023-02-28T15:07:14;102874.63;;;6.48;46.64
39773;BME280;25451;51.960;6.250;2023-02-28T15:09:41;102860.56;;;6.43;46.90
39773;BME280;25451;51.960;6.250;2023-02-28T15:12:07;102863.44;;;6.41;46.87
39773;BME280;25451;51.960;6.250;2023-02-28T15:14:37;102856.44;;;6.39;46.97
39773;BME280;25451;51.960;6.250;2023-02-28T15:17:08;102860.38;;;6.44;46.51
39773;BME280;25451;51.960;6.250;2023-02-28T15:19:41;102872.75;;;6.48;46.66
39773;BME280;25451;51.960;6.250;2023-02-28T15:22:15;102867.44;;;6.47;46.95
39773;BME280;25451;51.960;6.250;2023-02-28T15:27:22;102865.53;;;6.47;46.67